Time;durP1;ratioP1;P1;durP2;ratioP2;P2;SDS_P1;SDS_P2;PMS_P1;PMS_P2;Temp;Humidity;BMP_temperature;BMP_pressure;BME280_temperature;BME280_humidity;BME280_pressure;Samples;Min_cycle;Max_cycle;Signal;HPM_P1;HPM_P2
2022/07/10 00:01:36;;;;;;;7.10;1.27;;;15.50;99.90;;;;;;5049901;28;39102;-80
2022/07/10 00:04:03;;;;;;;2.63;1.00;;;15.50;99.90;;;;;;5048135;28;37641;-81
2022/07/10 00:06:29;;;;;;;3.08;1.02;;;15.50;99.90;;;;;;5045674;28;36845;-80
2022/07/10 00:08:57;;;;;;;7.43;1.60;;;15.50;99.90;;;;;;5045663;28;36360;-80
2022/07/10 00:11:25;;;;;;;4.95;1.35;;;15.40;99.90;;;;;;5050641;28;38212;-80
2022/07/10 00:13:51;;;;;;;3.35;1.00;;;15.40;99.90;;;;;;5049614;28;37800;-80
2022/07/10 00:16:17;;;;;;;3.35;1.20;;;15.40;99.90;;;;;;5050032;28;37747;-80
2022/07/10 00:18:44;;;;;;;5.65;1.40;;;15.40;99.90;;;;;;5050731;28;37651;-81
2022/07/10 00:21:11;;;;;;;5.05;1.20;;;15.40;99.90;;;;;;5026574;28;39100;-80
2022/07/10 00:23:37;;;;;;;8.15;1.50;;;15.40;99.90;;;;;;5038655;28;38106;-80
2022/07/10 00:26:04;;;;;;;3.83;1.00;;;15.40;99.90;;;;;;5028434;28;39072;-81
2022/07/10 00:28:31;;;;;;;6.88;3.20;;;15.40;99.90;;;;;;5030756;28;38041;-80
2022/07/10 00:30:57;;;;;;;4.28;2.13;;;15.40;99.90;;;;;;5031001;28;38792;-80
2022/07/10 00:33:23;;;;;;;3.63;1.55;;;15.40;99.90;;;;;;5029038;28;38451;-80
2022/07/10 00:35:51;;;;;;;6.15;1.40;;;15.40;99.90;;;;;;5027744;28;36931;-80
2022/07/10 00:38:17;;;;;;;6.43;1.30;;;15.40;99.90;;;;;;5027919;28;37326;-80
2022/07/10 00:40:44;;;;;;;3.67;1.10;;;15.30;99.90;;;;;;5027672;28;41128;-80
2022/07/10 00:43:11;;;;;;;5.38;1.25;;;15.30;99.90;;;;;;5033146;28;38291;-80
2022/07/10 00:45:37;;;;;;;3.95;1.30;;;15.30;99.90;;;;;;5033618;28;36841;-80
2022/07/10 00:48:04;;;;;;;6.80;1.23;;;15.30;99.90;;;;;;5026224;28;37366;-80
2022/07/10 00:50:32;;;;;;;5.82;1.15;;;15.30;99.90;;;;;;5024911;28;40643;-80
2022/07/10 00:52:58;;;;;;;4.50;1.33;;;15.30;99.90;;;;;;5028270;28;37595;-80
2022/07/10 00:55:25;;;;;;;4.78;1.00;;;15.30;99.90;;;;;;5026716;28;39086;-80
2022/07/10 00:57:52;;;;;;;3.45;1.27;;;15.20;99.90;;;;;;5026688;28;37824;-81
2022/07/10 01:00:19;;;;;;;5.38;1.40;;;15.20;99.90;;;;;;5038727;28;38004;-79
2022/07/10 01:02:45;;;;;;;4.15;1.00;;;15.20;99.90;;;;;;5024576;28;37869;-80
2022/07/10 01:05:12;;;;;;;2.90;1.00;;;15.20;99.90;;;;;;5017084;28;36914;-80
2022/07/10 01:07:39;;;;;;;4.43;1.10;;;15.20;99.90;;;;;;5027711;28;36458;-80
2022/07/10 01:10:06;;;;;;;3.85;1.35;;;15.20;99.90;;;;;;5027241;28;38164;-79
2022/07/10 01:12:33;;;;;;;4.25;1.17;;;15.10;99.90;;;;;;5028882;28;39226;-80
2022/07/10 01:15:00;;;;;;;5.30;1.50;;;15.10;99.90;;;;;;5033331;28;37804;-80
2022/07/10 01:17:29;;;;;;;3.13;1.05;;;15.10;99.90;;;;;;5029471;28;36491;-80
2022/07/10 01:19:56;;;;;;;5.80;1.60;;;15.10;99.90;;;;;;5036103;28;39193;-80
2022/07/10 01:22:22;;;;;;;5.55;1.27;;;15.00;99.90;;;;;;5046612;28;37672;-80
2022/07/10 01:24:49;;;;;;;3.10;1.25;;;15.00;99.90;;;;;;5050192;28;38303;-80
2022/07/10 01:27:15;;;;;;;5.88;1.38;;;15.00;99.90;;;;;;5047331;28;36836;-80
2022/07/10 01:29:43;;;;;;;1.98;0.90;;;15.00;99.90;;;;;;5047759;28;38195;-80
2022/07/10 01:32:11;;;;;;;5.35;1.63;;;15.00;99.90;;;;;;5050665;28;38548;-80
2022/07/10 01:34:38;;;;;;;4.60;1.20;;;15.00;99.90;;;;;;5051322;28;37103;-80
2022/07/10 01:37:04;;;;;;;2.35;1.23;;;15.00;99.90;;;;;;5044215;28;36502;-80
2022/07/10 01:39:34;;;;;;;3.95;1.38;;;15.00;99.90;;;;;;5039329;28;38846;-80
2022/07/10 01:42:01;;;;;;;4.90;1.00;;;15.00;99.90;;;;;;5053383;28;37614;-81
2022/07/10 01:44:28;;;;;;;3.35;1.27;;;15.00;99.90;;;;;;5037584;28;47751;-80
2022/07/10 01:46:55;;;;;;;3.60;1.02;;;15.00;99.90;;;;;;5052214;28;37661;-80
2022/07/10 01:49:22;;;;;;;3.85;1.40;;;15.00;99.90;;;;;;5043126;28;39998;-80
2022/07/10 01:51:53;;;;;;;5.60;1.42;;;15.00;99.90;;;;;;5052164;28;41870;-80
2022/07/10 01:54:20;;;;;;;2.67;1.38;;;14.90;99.90;;;;;;5046088;28;38003;-80
2022/07/10 01:56:46;;;;;;;2.67;1.00;;;14.90;99.90;;;;;;5047973;28;38184;-80
2022/07/10 01:59:13;;;;;;;5.72;1.35;;;14.90;99.90;;;;;;5043118;28;37746;-80
2022/07/10 02:01:40;;;;;;;6.93;1.20;;;14.90;99.90;;;;;;5038454;28;38050;-80
2022/07/10 02:06:52;;;;;;;4.95;1.20;;;14.90;99.90;;;;;;5037453;28;38130;-81
2022/07/10 02:09:19;;;;;;;3.25;1.30;;;14.90;99.90;;;;;;5035023;28;38113;-80
2022/07/10 02:11:45;;;;;;;1.95;1.17;;;14.90;99.90;;;;;;5038549;28;37643;-81
2022/07/10 02:14:12;;;;;;;4.97;1.00;;;14.90;99.90;;;;;;5035500;28;36797;-81
2022/07/10 02:16:38;;;;;;;4.68;1.17;;;14.90;99.90;;;;;;5036347;28;38438;-80
2022/07/10 02:19:05;;;;;;;5.15;1.30;;;14.80;99.90;;;;;;5031405;28;37973;-80
2022/07/10 02:21:31;;;;;;;4.32;1.17;;;14.80;99.90;;;;;;5039212;28;37482;-80
2022/07/10 02:23:58;;;;;;;4.25;1.17;;;14.80;99.90;;;;;;5032233;28;36447;-81
2022/07/10 02:26:25;;;;;;;2.60;1.10;;;14.80;99.90;;;;;;5042956;28;36641;-80
2022/07/10 02:28:51;;;;;;;3.83;1.00;;;14.80;99.90;;;;;;5050025;28;40019;-80
2022/07/10 02:31:18;;;;;;;3.25;0.90;;;14.80;99.90;;;;;;5046047;28;37357;-80
2022/07/10 02:33:45;;;;;;;2.88;1.00;;;14.80;99.90;;;;;;5047592;28;38522;-80
2022/07/10 02:36:11;;;;;;;5.57;1.23;;;14.80;99.90;;;;;;5044746;28;36434;-79
2022/07/10 02:38:39;;;;;;;6.03;1.10;;;14.90;99.90;;;;;;5049141;28;39050;-79
2022/07/10 02:41:05;;;;;;;3.60;1.00;;;14.90;99.90;;;;;;5047105;28;38527;-79
2022/07/10 02:43:32;;;;;;;2.30;0.95;;;14.90;99.90;;;;;;5045555;28;36898;-80
2022/07/10 02:45:59;;;;;;;2.88;1.00;;;14.80;99.90;;;;;;5043223;28;36258;-80
2022/07/10 02:48:25;;;;;;;3.83;1.00;;;14.80;99.90;;;;;;5040785;28;38624;-80
2022/07/10 02:50:52;;;;;;;3.75;1.02;;;14.80;99.90;;;;;;5045557;28;38262;-80
2022/07/10 02:53:20;;;;;;;7.57;1.25;;;14.80;99.90;;;;;;5044229;28;37678;-80
2022/07/10 02:55:46;;;;;;;5.32;1.10;;;14.80;99.90;;;;;;5047047;28;37739;-80
2022/07/10 02:58:15;;;;;;;2.53;1.00;;;14.80;99.90;;;;;;5045275;28;40265;-80
2022/07/10 03:00:41;;;;;;;2.10;1.00;;;14.80;99.90;;;;;;5047322;28;39542;-80
2022/07/10 03:03:09;;;;;;;6.93;1.30;;;14.80;99.90;;;;;;5039172;28;37126;-80
2022/07/10 03:05:35;;;;;;;2.22;1.02;;;14.90;99.90;;;;;;5046990;28;38587;-80
2022/07/10 03:08:03;;;;;;;5.10;1.30;;;14.90;99.90;;;;;;5040990;28;38238;-80
2022/07/10 03:10:30;;;;;;;2.53;0.93;;;14.90;99.90;;;;;;5044707;28;48153;-80
2022/07/10 03:12:57;;;;;;;6.70;1.65;;;14.90;99.90;;;;;;5043405;28;37205;-80
2022/07/10 03:15:24;;;;;;;5.03;1.05;;;14.90;99.90;;;;;;5046640;28;37519;-81
2022/07/10 03:17:50;;;;;;;3.38;0.90;;;14.90;99.90;;;;;;5049938;28;39992;-80
2022/07/10 03:20:17;;;;;;;4.10;1.10;;;14.90;99.90;;;;;;5037824;28;38316;-80
2022/07/10 03:22:43;;;;;;;3.13;1.13;;;14.90;99.90;;;;;;5044685;28;37094;-80
2022/07/10 03:25:10;;;;;;;4.57;1.35;;;14.90;99.90;;;;;;5044396;28;37560;-80
2022/07/10 03:27:37;;;;;;;2.30;1.00;;;14.90;99.90;;;;;;5045653;28;37875;-80
2022/07/10 03:30:04;;;;;;;3.58;0.82;;;14.90;99.90;;;;;;5044490;28;38964;-80
2022/07/10 03:32:31;;;;;;;4.13;1.15;;;14.90;99.90;;;;;;5037883;28;48069;-80
2022/07/10 03:34:57;;;;;;;3.03;1.00;;;14.90;99.90;;;;;;5044141;28;37609;-80
2022/07/10 03:37:24;;;;;;;2.65;1.20;;;14.90;99.90;;;;;;5042274;28;39283;-80
2022/07/10 03:39:51;;;;;;;4.47;1.35;;;14.90;99.90;;;;;;5045751;28;38542;-80
2022/07/10 03:42:17;;;;;;;5.35;1.23;;;14.90;99.90;;;;;;5048216;28;37763;-79
2022/07/10 03:44:44;;;;;;;5.47;1.75;;;15.00;99.90;;;;;;5043954;28;37638;-80
2022/07/10 03:47:11;;;;;;;4.45;1.15;;;14.90;99.90;;;;;;5043506;28;38920;-79
2022/07/10 03:49:41;;;;;;;3.80;1.20;;;15.00;99.90;;;;;;5045276;28;38692;-79
2022/07/10 03:52:08;;;;;;;7.28;1.20;;;14.90;99.90;;;;;;5045396;28;38142;-79
2022/07/10 03:54:34;;;;;;;5.65;1.33;;;14.90;99.90;;;;;;5044370;28;36297;-79
2022/07/10 03:59:47;;;;;;;4.60;1.10;;;15.00;99.90;;;;;;5049017;28;40366;-79
2022/07/10 04:02:13;;;;;;;8.45;1.27;;;15.10;99.90;;;;;;5048550;28;37855;-79
2022/07/10 04:04:39;;;;;;;5.85;1.10;;;15.10;99.90;;;;;;5046533;28;35797;-78
2022/07/10 04:07:06;;;;;;;2.63;1.05;;;15.20;99.90;;;;;;5045637;28;37606;-79
2022/07/10 04:09:35;;;;;;;6.35;1.45;;;15.20;99.90;;;;;;5048493;28;38379;-79
2022/07/10 04:12:02;;;;;;;4.35;1.10;;;15.30;99.90;;;;;;5056557;28;37005;-79
2022/07/10 04:14:29;;;;;;;4.30;1.13;;;15.30;99.90;;;;;;5041589;28;36395;-80
2022/07/10 04:16:55;;;;;;;3.70;1.27;;;15.40;99.90;;;;;;5045826;28;40259;-78
2022/07/10 04:19:22;;;;;;;5.50;1.15;;;15.40;99.90;;;;;;5041946;28;38445;-79
2022/07/10 04:21:48;;;;;;;3.78;1.10;;;15.40;99.90;;;;;;5047244;28;38204;-78
2022/07/10 04:24:15;;;;;;;4.90;1.13;;;15.50;99.90;;;;;;5044776;28;38630;-79
2022/07/10 04:26:43;;;;;;;5.32;0.98;;;15.50;99.90;;;;;;5049042;28;37876;-80
2022/07/10 04:29:09;;;;;;;5.78;0.90;;;15.50;99.90;;;;;;5043101;28;38398;-79
2022/07/10 04:31:36;;;;;;;4.15;1.00;;;15.60;99.90;;;;;;5044724;28;37952;-78
2022/07/10 04:34:02;;;;;;;5.80;1.42;;;15.60;99.90;;;;;;5047269;28;37503;-79
2022/07/10 04:36:30;;;;;;;4.22;1.10;;;15.60;99.90;;;;;;5049627;28;38895;-79
2022/07/10 04:38:56;;;;;;;3.53;1.00;;;15.70;99.90;;;;;;5047910;28;37987;-80
2022/07/10 04:41:23;;;;;;;5.55;1.50;;;15.70;99.90;;;;;;5048555;28;37381;-80
2022/07/10 04:43:50;;;;;;;3.53;1.00;;;15.80;99.90;;;;;;5044709;28;37415;-80
2022/07/10 04:46:16;;;;;;;4.20;1.25;;;15.80;99.90;;;;;;5047072;28;39752;-80
2022/07/10 04:48:43;;;;;;;3.65;1.10;;;15.90;99.90;;;;;;5046717;28;39004;-80
2022/07/10 04:51:09;;;;;;;5.22;1.00;;;15.80;99.90;;;;;;5050165;28;37894;-80
2022/07/10 04:53:35;;;;;;;3.90;1.08;;;15.90;99.90;;;;;;5051631;28;37342;-80
2022/07/10 04:56:02;;;;;;;2.33;0.82;;;16.00;99.90;;;;;;5050158;28;38176;-79
2022/07/10 04:58:31;;;;;;;6.53;1.42;;;16.00;99.90;;;;;;5050975;28;38003;-80
2022/07/10 05:00:57;;;;;;;6.05;1.25;;;16.00;99.90;;;;;;5051473;28;36893;-80
2022/07/10 05:03:23;;;;;;;5.22;1.35;;;16.00;99.90;;;;;;5049460;28;36393;-80
2022/07/10 05:05:49;;;;;;;4.18;1.10;;;16.00;99.90;;;;;;5052041;28;39109;-80
2022/07/10 05:08:16;;;;;;;4.07;1.40;;;16.10;99.90;;;;;;5050174;28;38692;-80
2022/07/10 05:10:42;;;;;;;3.58;0.93;;;16.10;99.90;;;;;;5049551;28;36345;-80
2022/07/10 05:13:08;;;;;;;2.55;1.02;;;16.20;99.90;;;;;;5046185;28;35882;-81
2022/07/10 05:15:34;;;;;;;4.90;1.00;;;16.20;99.90;;;;;;5048966;28;38907;-80
2022/07/10 05:18:00;;;;;;;3.95;0.88;;;16.20;99.90;;;;;;5050983;28;37210;-80
2022/07/10 05:20:26;;;;;;;7.82;1.10;;;16.30;99.90;;;;;;5054026;28;37365;-80
2022/07/10 05:22:52;;;;;;;3.28;1.05;;;16.30;99.90;;;;;;5056649;28;38701;-79
2022/07/10 05:25:18;;;;;;;1.55;0.80;;;16.40;99.90;;;;;;5053469;28;38616;-80
2022/07/10 05:27:45;;;;;;;5.35;1.10;;;16.40;99.90;;;;;;5053503;28;37097;-80
2022/07/10 05:30:11;;;;;;;3.83;0.80;;;16.40;99.90;;;;;;5053172;28;37781;-79
2022/07/10 05:32:44;;;;;;;3.63;1.48;;;16.40;99.90;;;;;;5053627;28;35885;-80
2022/07/10 05:35:12;;;;;;;6.10;1.25;;;16.40;99.90;;;;;;5050150;28;38566;-80
2022/07/10 05:37:38;;;;;;;6.50;1.10;;;16.40;99.90;;;;;;5053102;28;38272;-79
2022/07/10 05:40:05;;;;;;;4.20;1.27;;;16.40;99.90;;;;;;5053283;28;39402;-79
2022/07/10 05:42:31;;;;;;;3.92;1.05;;;16.40;99.90;;;;;;5047068;28;38659;-80
2022/07/10 05:44:57;;;;;;;3.58;0.90;;;16.50;99.90;;;;;;5035586;28;39930;-80
2022/07/10 05:47:23;;;;;;;6.88;1.10;;;16.50;99.90;;;;;;5030521;28;37402;-80
2022/07/10 05:49:49;;;;;;;5.15;1.10;;;16.50;99.90;;;;;;5042241;28;38400;-80
2022/07/10 05:52:15;;;;;;;3.78;1.02;;;16.60;99.90;;;;;;5043155;28;36379;-80
2022/07/10 05:54:42;;;;;;;6.85;1.10;;;16.60;99.90;;;;;;5044817;28;39071;-80
2022/07/10 05:57:08;;;;;;;5.47;1.40;;;16.70;99.90;;;;;;5054498;28;37148;-79
2022/07/10 05:59:34;;;;;;;3.95;1.20;;;16.70;99.90;;;;;;5054236;28;37592;-80
2022/07/10 06:02:01;;;;;;;3.60;0.85;;;16.70;99.90;;;;;;5056686;28;37263;-80
2022/07/10 06:04:27;;;;;;;3.10;0.80;;;16.80;99.90;;;;;;5057680;28;49779;-80
2022/07/10 06:06:54;;;;;;;8.15;1.10;;;16.90;99.90;;;;;;5299929;22;38558;-80
2022/07/10 06:09:20;;;;;;;6.45;1.40;;;17.10;99.90;;;;;;5057728;28;39317;-80
2022/07/10 06:11:48;;;;;;;8.15;1.42;;;17.20;99.90;;;;;;5060393;28;37274;-80
2022/07/10 06:14:14;;;;;;;6.30;1.13;;;17.20;99.90;;;;;;5057305;28;38652;-80
2022/07/10 06:16:40;;;;;;;1.30;0.77;;;17.30;99.90;;;;;;5057033;28;39475;-80
2022/07/10 06:19:06;;;;;;;2.85;0.90;;;17.50;99.90;;;;;;5054264;28;37527;-80
2022/07/10 06:21:33;;;;;;;3.65;1.05;;;17.80;99.90;;;;;;5056551;28;38688;-80
2022/07/10 06:24:00;;;;;;;4.85;0.90;;;17.90;99.90;;;;;;5056757;28;38864;-80
2022/07/10 06:26:26;;;;;;;4.97;1.05;;;18.00;99.90;;;;;;5057812;28;38410;-80
2022/07/10 06:28:52;;;;;;;5.68;1.00;;;18.10;99.90;;;;;;5058113;28;38455;-80
2022/07/10 06:31:19;;;;;;;6.40;1.50;;;18.20;99.90;;;;;;5056156;28;37012;-80
2022/07/10 06:33:46;;;;;;;2.60;0.90;;;18.20;99.90;;;;;;5056607;28;40592;-81
2022/07/10 06:36:12;;;;;;;5.38;0.93;;;18.30;99.90;;;;;;5053241;28;38435;-80
2022/07/10 06:38:42;;;;;;;4.57;1.33;;;18.20;99.90;;;;;;5056235;28;38038;-80
2022/07/10 06:41:09;;;;;;;3.95;0.95;;;18.30;99.90;;;;;;5054953;28;37793;-80
2022/07/10 06:43:38;;;;;;;4.22;1.17;;;18.20;99.90;;;;;;5055690;28;39036;-79
2022/07/10 06:48:43;;;;;;;3.67;1.13;;;18.30;99.90;;;;;;5331570;23;20030;-80
2022/07/10 06:51:09;;;;;;;3.53;1.25;;;18.40;99.90;;;;;;5056716;28;38473;-79
2022/07/10 06:53:35;;;;;;;4.55;0.93;;;18.60;99.90;;;;;;5056405;28;39381;-81
2022/07/10 06:56:02;;;;;;;4.65;1.10;;;18.90;99.90;;;;;;5054778;28;38085;-80
2022/07/10 06:58:31;;;;;;;3.17;0.80;;;19.00;99.90;;;;;;5055990;28;36834;-80
2022/07/10 07:00:58;;;;;;;5.18;1.00;;;19.30;99.90;;;;;;5055636;28;37463;-80
2022/07/10 07:03:31;;;;;;;8.50;1.15;;;19.00;99.90;;;;;;5054512;28;38661;-81
2022/07/10 07:24:07;;;;;;;5.13;0.98;;;19.60;99.90;;;;;;4920025;29;39055;-81
2022/07/10 07:26:34;;;;;;;3.60;1.00;;;19.40;99.90;;;;;;4916089;29;39457;-81
2022/07/10 07:29:00;;;;;;;3.97;0.90;;;19.30;99.90;;;;;;4894214;29;37288;-81
2022/07/10 07:31:27;;;;;;;2.97;1.10;;;19.50;99.90;;;;;;4915811;29;48447;-81
2022/07/10 07:33:53;;;;;;;2.95;0.95;;;20.00;99.90;;;;;;4904066;29;37136;-81
2022/07/10 07:36:20;;;;;;;3.85;0.80;;;20.30;99.90;;;;;;4896391;29;41823;-81
2022/07/10 07:38:46;;;;;;;3.08;1.00;;;20.50;99.90;;;;;;4895262;29;37893;-81
2022/07/10 07:41:15;;;;;;;5.10;0.93;;;20.60;99.90;;;;;;4895878;29;37986;-81
2022/07/10 07:43:42;;;;;;;3.83;1.15;;;20.30;99.90;;;;;;4898052;29;37660;-81
2022/07/10 07:46:09;;;;;;;3.67;0.95;;;19.80;99.90;;;;;;4897437;29;38990;-81
2022/07/10 07:48:38;;;;;;;6.00;1.20;;;19.50;99.90;;;;;;4919310;29;39742;-80
2022/07/10 07:51:05;;;;;;;5.13;1.10;;;19.40;99.90;;;;;;4914709;29;39132;-81
2022/07/10 07:53:31;;;;;;;5.30;0.85;;;19.20;99.90;;;;;;4927408;29;37936;-81
2022/07/10 07:55:57;;;;;;;4.22;0.95;;;19.10;99.90;;;;;;4910374;29;40385;-81
2022/07/10 07:58:24;;;;;;;4.13;1.15;;;19.20;99.90;;;;;;4910432;29;38512;-81
2022/07/10 08:00:51;;;;;;;2.63;0.93;;;19.20;99.90;;;;;;4897489;29;37729;-82
2022/07/10 08:03:17;;;;;;;4.82;0.82;;;19.30;99.90;;;;;;4896206;29;36863;-81
2022/07/10 08:05:44;;;;;;;4.22;1.13;;;19.40;99.90;;;;;;4897512;29;37806;-81
2022/07/10 08:08:16;;;;;;;2.65;0.82;;;19.40;99.90;;;;;;4894765;29;37647;-81
2022/07/10 08:10:49;;;;;;;;;;;19.60;99.90;;;;;;4902068;29;38213;-81
2022/07/10 08:13:16;;;;;;;4.70;0.80;;;19.60;99.90;;;;;;4901027;29;37484;-81
2022/07/10 08:15:45;;;;;;;2.47;0.73;;;19.70;99.90;;;;;;4920100;29;39765;-81
2022/07/10 08:18:15;;;;;;;3.58;1.20;;;19.80;99.90;;;;;;4903516;29;39324;-80
2022/07/10 08:20:42;;;;;;;4.70;0.80;;;19.70;99.90;;;;;;4897561;29;37818;-81
2022/07/10 08:23:09;;;;;;;4.38;1.35;;;19.80;99.90;;;;;;4896626;29;38101;-81
2022/07/10 08:25:36;;;;;;;3.45;0.68;;;19.90;99.90;;;;;;4903236;29;39870;-81
2022/07/10 08:28:05;;;;;;;4.00;1.02;;;19.80;99.90;;;;;;4895617;29;39476;-80
2022/07/10 08:30:38;;;;;;;2.72;1.08;;;19.80;99.90;;;;;;4901657;29;38462;-81
2022/07/10 08:33:04;;;;;;;5.63;0.98;;;19.70;99.90;;;;;;4880067;29;37697;-80
2022/07/10 08:35:31;;;;;;;2.85;0.77;;;19.80;99.90;;;;;;4880077;29;39166;-81
2022/07/10 08:37:58;;;;;;;4.68;1.00;;;19.90;99.90;;;;;;4896337;29;39554;-81
2022/07/10 08:40:25;;;;;;;5.85;1.05;;;20.20;99.90;;;;;;4888698;29;38163;-81
2022/07/10 08:42:51;;;;;;;3.38;0.90;;;20.20;99.90;;;;;;4880248;29;36433;-81
2022/07/10 08:45:18;;;;;;;3.72;0.85;;;20.50;99.90;;;;;;4881795;29;39099;-81
2022/07/10 08:47:45;;;;;;;4.25;0.80;;;20.70;99.90;;;;;;4888509;29;38829;-81
2022/07/10 08:50:18;;;;;;;3.55;0.77;;;20.80;99.90;;;;;;4877609;29;39045;-80
2022/07/10 08:52:56;;;;;;;7.25;0.90;;;20.60;99.90;;;;;;4876557;29;38687;-80
2022/07/10 08:55:26;;;;;;;3.13;0.88;;;20.50;99.90;;;;;;4886831;29;39831;-81
2022/07/10 08:57:55;;;;;;;3.08;0.77;;;20.40;99.90;;;;;;4897497;29;38229;-81
2022/07/10 09:00:23;;;;;;;3.42;0.70;;;20.60;99.90;;;;;;4889180;29;37142;-80
2022/07/10 09:02:50;;;;;;;3.03;0.90;;;20.70;99.90;;;;;;4897410;29;37449;-81
2022/07/10 09:05:16;;;;;;;3.67;0.75;;;20.50;99.90;;;;;;4881422;29;38336;-81
2022/07/10 09:07:44;;;;;;;3.08;0.98;;;20.40;99.90;;;;;;4896945;29;37790;-81
2022/07/10 09:10:11;;;;;;;3.10;0.65;;;20.20;99.90;;;;;;4875877;29;37839;-81
2022/07/10 09:12:58;;;;;;;4.93;1.00;;;20.10;99.90;;;;;;4875049;29;37393;-84
2022/07/10 09:15:29;;;;;;;4.32;1.02;;;19.90;99.90;;;;;;4879648;29;37997;-81
2022/07/10 09:18:05;;;;;;;4.90;0.98;;;19.90;99.90;;;;;;4892942;29;38403;-80
2022/07/10 09:20:37;;;;;;;2.97;0.68;;;19.80;99.90;;;;;;4898756;29;48679;-81
2022/07/10 09:23:20;;;;;;;3.83;1.17;;;19.90;99.90;;;;;;4918163;29;37695;-80
2022/07/10 09:25:52;;;;;;;5.32;1.00;;;20.00;99.90;;;;;;4928018;29;38706;-81
2022/07/10 09:28:20;;;;;;;1.42;0.80;;;20.10;99.90;;;;;;4905131;29;39232;-81
2022/07/10 09:30:47;;;;;;;4.55;1.10;;;20.20;99.90;;;;;;4882406;29;37676;-81
2022/07/10 09:33:30;;;;;;;4.47;0.93;;;20.20;99.90;;;;;;4881565;29;37927;-81
2022/07/10 09:36:09;;;;;;;2.75;0.85;;;20.20;99.90;;;;;;4881725;29;38599;-81
2022/07/10 09:38:44;;;;;;;3.17;0.90;;;20.20;99.90;;;;;;4891381;29;48463;-81
2022/07/10 09:41:28;;;;;;;9.40;1.13;;;19.90;99.90;;;;;;4899580;29;37611;-81
2022/07/10 09:43:57;;;;;;;2.65;0.75;;;19.90;99.90;;;;;;4900968;29;37108;-81
2022/07/10 09:46:41;;;;;;;3.22;0.98;;;20.00;99.90;;;;;;4900217;29;37253;-81
2022/07/10 09:49:19;;;;;;;2.65;1.10;;;20.20;99.90;;;;;;4903678;29;37236;-81
2022/07/10 09:51:52;;;;;;;2.88;1.00;;;20.30;99.90;;;;;;4919878;29;39668;-81
2022/07/10 09:54:22;;;;;;;2.38;0.88;;;20.50;99.90;;;;;;4899509;29;36541;-81
2022/07/10 09:56:53;;;;;;;4.32;1.10;;;20.50;99.90;;;;;;4908382;29;38256;-80
2022/07/10 09:59:20;;;;;;;4.20;1.08;;;20.40;99.90;;;;;;4910194;29;38377;-81
2022/07/10 10:01:50;;;;;;;5.55;1.77;;;20.50;99.90;;;;;;4894225;29;37798;-81
2022/07/10 10:04:28;;;;;;;6.70;1.38;;;20.60;99.90;;;;;;4898768;29;36387;-81
2022/07/10 10:07:00;;;;;;;6.53;1.27;;;20.70;99.90;;;;;;4905833;29;37860;-81
2022/07/10 10:09:38;;;;;;;3.67;1.30;;;20.90;99.90;;;;;;4894362;29;37807;-82
2022/07/10 10:12:22;;;;;;;3.70;1.20;;;20.80;99.90;;;;;;4905930;29;36645;-81
2022/07/10 10:14:52;;;;;;;2.55;0.95;;;20.90;99.90;;;;;;4895218;29;38358;-82
2022/07/10 10:17:20;;;;;;;4.10;1.00;;;21.10;99.90;;;;;;4894912;29;38386;-81
2022/07/10 10:22:34;;;;;;;2.30;0.80;;;21.40;99.90;;;;;;4885540;29;49956;-81
2022/07/10 10:25:05;;;;;;;2.30;0.85;;;21.70;99.90;;;;;;4898272;29;36747;-80
2022/07/10 10:27:32;;;;;;;4.35;1.00;;;21.70;99.90;;;;;;4910403;29;47182;-81
2022/07/10 10:30:06;;;;;;;6.32;1.30;;;21.70;99.90;;;;;;4900105;29;39339;-81
2022/07/10 10:32:40;;;;;;;5.30;1.10;;;21.80;99.90;;;;;;5335502;23;50102;-80
2022/07/10 10:35:09;;;;;;;3.70;1.00;;;21.70;99.90;;;;;;4919376;29;37287;-79
2022/07/10 10:37:50;;;;;;;2.35;0.77;;;22.00;99.90;;;;;;4909048;29;38909;-79
2022/07/10 10:40:33;;;;;;;3.55;0.93;;;22.10;99.90;;;;;;4910211;29;38561;-79
2022/07/10 10:43:20;;;;;;;4.18;1.13;;;22.10;99.90;;;;;;4924705;28;38831;-81
2022/07/10 10:49:48;;;;;;;5.80;2.88;;;22.10;99.90;;;;;;4930574;29;51230;-79
2022/07/10 11:20:16;;;;;;;2.65;1.00;;;22.50;99.90;;;;;;5972782;23;20031;31
2022/07/10 11:42:24;;;;;;;1.27;0.70;;;23.80;99.90;;;;;;5753863;23;20967;-79
2022/07/10 12:10:41;;;;;;;2.60;1.00;;;23.90;99.90;;;;;;5561602;23;20021;-78
2022/07/10 12:54:38;;;;;;;1.85;0.65;;;24.20;99.90;;;;;;5096359;23;20049;-80
2022/07/10 12:57:23;;;;;;;2.40;0.65;;;24.20;99.90;;;;;;4931892;23;37849;-81
2022/07/10 12:59:50;;;;;;;2.40;0.80;;;24.10;99.90;;;;;;4845062;29;38410;-81
2022/07/10 13:02:19;;;;;;;2.83;0.80;;;23.80;99.90;;;;;;4850147;29;38896;-81
2022/07/10 13:04:57;;;;;;;2.42;0.98;;;23.70;99.90;;;;;;4840694;29;37696;-80
2022/07/10 13:07:34;;;;;;;3.42;0.80;;;23.80;99.90;;;;;;4846125;29;40048;-81
2022/07/10 13:10:02;;;;;;;1.15;0.70;;;24.00;99.90;;;;;;4863664;29;38891;-81
2022/07/10 13:12:38;;;;;;;3.15;0.85;;;24.20;99.90;;;;;;4833046;29;36986;-81
2022/07/10 13:15:24;;;;;;;1.83;0.80;;;24.10;99.90;;;;;;4850925;29;37635;-81
2022/07/10 13:17:53;;;;;;;4.45;0.88;;;24.10;99.90;;;;;;4837762;29;39365;-80
2022/07/10 13:20:33;;;;;;;3.72;0.90;;;24.30;99.90;;;;;;4813610;29;37513;-81
2022/07/10 13:23:00;;;;;;;2.55;1.00;;;24.60;99.90;;;;;;4866466;29;38380;-81
2022/07/10 13:25:35;;;;;;;2.35;0.85;;;24.80;99.90;;;;;;4841854;29;36044;-81
2022/07/10 13:28:07;;;;;;;2.47;0.90;;;24.50;99.90;;;;;;4874801;29;39693;-82
2022/07/10 13:30:34;;;;;;;4.65;0.90;;;24.30;99.90;;;;;;4860231;29;37843;-80
2022/07/10 13:35:55;;;;;;;5.80;1.23;;;24.00;99.90;;;;;;5561269;24;20068;-82
2022/07/10 13:38:25;;;;;;;3.20;0.80;;;23.80;99.90;;;;;;4874350;29;37773;-82
2022/07/10 13:41:22;;;;;;;3.50;0.80;;;23.70;99.90;;;;;;4880102;29;38716;-80
2022/07/10 13:43:54;;;;;;;2.53;0.98;;;24.00;99.90;;;;;;4882422;29;47604;-81
2022/07/10 13:51:41;;;;;;;2.58;0.70;;;24.10;99.90;;;;;;5486281;23;21338;-80
2022/07/10 14:02:12;;;;;;;4.82;1.35;;;24.00;99.90;;;;;;5030141;23;20042;-82
2022/07/10 14:04:43;;;;;;;2.40;1.10;;;24.20;99.90;;;;;;4883087;29;37805;-82
2022/07/10 14:07:10;;;;;;;4.80;1.40;;;24.40;99.90;;;;;;5062087;23;37992;-81
2022/07/10 14:09:44;;;;;;;2.05;0.95;;;24.60;99.90;;;;;;4892653;29;39532;-81
2022/07/10 14:15:00;;;;;;;6.53;1.10;;;24.10;99.90;;;;;;5245324;23;20057;-79
2022/07/10 14:17:32;;;;;;;4.30;1.13;;;23.90;99.90;;;;;;4939290;24;35930;-81
2022/07/10 14:20:04;;;;;;;2.88;1.15;;;23.90;99.90;;;;;;4823120;29;38524;-82
2022/07/10 14:22:40;;;;;;;2.75;1.35;;;23.90;99.90;;;;;;4825612;29;50006;-82
2022/07/10 14:25:22;;;;;;;3.10;1.10;;;23.90;99.90;;;;;;4835470;29;37512;-82
2022/07/10 14:28:16;;;;;;;;;;;23.60;99.90;;;;;;4820420;29;37616;-81
2022/07/10 14:30:57;;;;;;;7.35;1.30;;;23.50;99.90;;;;;;4829594;29;50014;-80
2022/07/10 14:33:25;;;;;;;3.05;1.25;;;23.10;99.90;;;;;;4835720;29;38763;-81
2022/07/10 14:35:53;;;;;;;1.58;0.93;;;23.20;99.90;;;;;;4842818;29;36802;-81
2022/07/10 14:38:22;;;;;;;3.58;1.45;;;23.30;99.90;;;;;;4821105;29;37166;-81
2022/07/10 14:40:52;;;;;;;3.85;1.23;;;23.40;99.90;;;;;;4863319;29;39336;-80
2022/07/10 14:43:27;;;;;;;5.38;1.33;;;23.50;99.90;;;;;;4832942;29;39126;-80
2022/07/10 14:48:31;;;;;;;3.30;1.40;;;23.40;99.90;;;;;;5271258;24;20048;-80
2022/07/10 14:51:03;;;;;;;4.28;1.25;;;23.60;99.90;;;;;;4868716;29;38762;-81
2022/07/10 14:53:43;;;;;;;;;;;23.50;99.90;;;;;;4862084;29;48824;-80
2022/07/10 14:56:15;;;;;;;2.83;1.00;;;23.60;99.90;;;;;;4883368;29;40897;-81
2022/07/10 15:06:41;;;;;;;7.85;1.40;;;23.40;99.90;;;;;;5201630;23;20038;-81
2022/07/10 15:14:33;;;;;;;4.35;1.55;;;23.80;99.90;;;;;;5177341;23;20041;-80
2022/07/10 15:17:02;;;;;;;3.33;1.25;;;24.00;99.90;;;;;;4873406;29;37775;-81
2022/07/10 15:19:40;;;;;;;3.30;1.08;;;24.00;99.90;;;;;;4868357;29;49011;-80
2022/07/10 15:22:13;;;;;;;3.15;1.48;;;24.20;99.90;;;;;;5169511;23;37944;-81
2022/07/10 15:24:44;;;;;;;4.55;1.10;;;24.10;99.90;;;;;;5482313;23;38743;-82
2022/07/10 15:27:21;;;;;;;3.33;1.20;;;24.20;99.90;;;;;;4856951;29;38547;-80
2022/07/10 15:30:11;;;;;;;7.10;1.20;;;24.20;99.90;;;;;;5085091;23;37493;31
2022/07/10 15:32:41;;;;;;;2.75;1.00;;;24.00;99.90;;;;;;5252930;23;49573;31
2022/07/10 15:35:09;;;;;;;2.80;1.02;;;23.90;99.90;;;;;;4877388;29;38481;-81
2022/07/10 15:45:34;;;;;;;4.22;1.13;;;23.60;99.90;;;;;;5510374;23;20064;-80
2022/07/10 15:50:42;;;;;;;3.97;1.42;;;23.50;99.90;;;;;;5592852;23;20352;-81
2022/07/10 15:59:00;;;;;;;3.50;1.40;;;23.00;99.90;;;;;;5771423;23;20050;-79
2022/07/10 16:01:40;;;;;;;2.42;1.13;;;22.70;99.90;;;;;;4873825;29;35684;-81
2022/07/10 16:04:20;;;;;;;4.35;1.48;;;22.60;99.90;;;;;;4872522;29;38480;-81
2022/07/10 16:06:53;;;;;;;4.32;1.20;;;22.80;99.90;;;;;;4880609;29;38703;-80
2022/07/10 16:09:23;;;;;;;5.90;1.45;;;22.80;99.90;;;;;;4853558;29;39285;-81
2022/07/10 16:11:51;;;;;;;4.82;2.22;;;22.80;99.90;;;;;;4881164;29;36157;-81
2022/07/10 16:17:01;;;;;;;4.57;1.60;;;22.80;99.90;;;;;;5324401;23;20044;-80
2022/07/10 16:28:37;;;;;;;4.97;1.45;;;22.70;99.90;;;;;;5030912;23;20056;-80